sensor_id;sensor_type;location;lat;lon;timestamp;temperature;humidity
11822;DHT22;5968;50.362;8.982;2022-07-19T00:01:56;20.60;29.20
11822;DHT22;5968;50.362;8.982;2022-07-19T00:04:24;20.60;29.40
11822;DHT22;5968;50.362;8.982;2022-07-19T00:06:51;20.50;29.40
11822;DHT22;5968;50.362;8.982;2022-07-19T00:09:23;20.50;32.40
11822;DHT22;5968;50.362;8.982;2022-07-19T00:11:52;20.40;34.00
11822;DHT22;5968;50.362;8.982;2022-07-19T00:14:23;20.30;34.80
11822;DHT22;5968;50.362;8.982;2022-07-19T00:16:51;20.30;35.60
11822;DHT22;5968;50.362;8.982;2022-07-19T00:19:19;20.20;35.50
11822;DHT22;5968;50.362;8.982;2022-07-19T00:21:47;20.70;37.20
11822;DHT22;5968;50.362;8.982;2022-07-19T00:24:14;20.10;38.10
11822;DHT22;5968;50.362;8.982;2022-07-19T00:26:44;20.10;39.00
11822;DHT22;5968;50.362;8.982;2022-07-19T00:29:19;20.00;41.30
11822;DHT22;5968;50.362;8.982;2022-07-19T00:31:46;20.00;40.60
11822;DHT22;5968;50.362;8.982;2022-07-19T00:34:14;19.90;40.80
11822;DHT22;5968;50.362;8.982;2022-07-19T00:36:43;19.90;42.80
11822;DHT22;5968;50.362;8.982;2022-07-19T00:39:10;19.90;43.00
11822;DHT22;5968;50.362;8.982;2022-07-19T00:41:39;19.90;43.90
11822;DHT22;5968;50.362;8.982;2022-07-19T00:44:26;19.80;45.70
11822;DHT22;5968;50.362;8.982;2022-07-19T00:46:54;19.80;47.50
11822;DHT22;5968;50.362;8.982;2022-07-19T00:49:22;19.80;48.70
11822;DHT22;5968;50.362;8.982;2022-07-19T00:51:50;19.70;49.30
11822;DHT22;5968;50.362;8.982;2022-07-19T00:54:20;19.70;52.30
11822;DHT22;5968;50.362;8.982;2022-07-19T00:56:49;19.60;54.10
11822;DHT22;5968;50.362;8.982;2022-07-19T00:59:18;19.60;54.80
11822;DHT22;5968;50.362;8.982;2022-07-19T01:02:04;19.50;55.70
11822;DHT22;5968;50.362;8.982;2022-07-19T01:04:33;19.40;57.30
11822;DHT22;5968;50.362;8.982;2022-07-19T01:07:01;19.40;57.90
11822;DHT22;5968;50.362;8.982;2022-07-19T01:09:41;19.40;56.60
11822;DHT22;5968;50.362;8.982;2022-07-19T01:12:09;19.30;58.50
11822;DHT22;5968;50.362;8.982;2022-07-19T01:14:54;19.30;59.60
11822;DHT22;5968;50.362;8.982;2022-07-19T01:17:24;19.30;60.10
11822;DHT22;5968;50.362;8.982;2022-07-19T01:19:52;19.20;61.30
11822;DHT22;5968;50.362;8.982;2022-07-19T01:22:21;19.20;61.90
11822;DHT22;5968;50.362;8.982;2022-07-19T01:24:49;19.10;62.90
11822;DHT22;5968;50.362;8.982;2022-07-19T01:27:17;19.10;65.50
11822;DHT22;5968;50.362;8.982;2022-07-19T01:29:44;19.00;69.80
11822;DHT22;5968;50.362;8.982;2022-07-19T01:32:19;18.90;74.20
11822;DHT22;5968;50.362;8.982;2022-07-19T01:34:46;18.90;77.80
11822;DHT22;5968;50.362;8.982;2022-07-19T01:37:14;18.80;80.80
11822;DHT22;5968;50.362;8.982;2022-07-19T01:39:58;18.80;80.50
11822;DHT22;5968;50.362;8.982;2022-07-19T01:42:25;18.80;81.00
11822;DHT22;5968;50.362;8.982;2022-07-19T01:44:53;18.70;82.60
11822;DHT22;5968;50.362;8.982;2022-07-19T01:47:21;18.70;85.40
11822;DHT22;5968;50.362;8.982;2022-07-19T01:49:49;18.70;88.90
11822;DHT22;5968;50.362;8.982;2022-07-19T01:52:17;18.60;91.00
11822;DHT22;5968;50.362;8.982;2022-07-19T01:54:45;18.60;91.00
11822;DHT22;5968;50.362;8.982;2022-07-19T01:57:15;18.50;92.10
11822;DHT22;5968;50.362;8.982;2022-07-19T01:59:43;18.40;93.00
11822;DHT22;5968;50.362;8.982;2022-07-19T02:02:11;18.40;93.20
11822;DHT22;5968;50.362;8.982;2022-07-19T02:04:54;18.40;94.20
11822;DHT22;5968;50.362;8.982;2022-07-19T02:07:22;18.40;94.50
11822;DHT22;5968;50.362;8.982;2022-07-19T02:09:49;18.40;94.60
11822;DHT22;5968;50.362;8.982;2022-07-19T02:12:19;18.30;95.80
11822;DHT22;5968;50.362;8.982;2022-07-19T02:14:46;18.30;96.10
11822;DHT22;5968;50.362;8.982;2022-07-19T02:17:32;18.20;96.80
11822;DHT22;5968;50.362;8.982;2022-07-19T02:20:28;18.20;97.60
11822;DHT22;5968;50.362;8.982;2022-07-19T02:22:55;18.20;98.30
11822;DHT22;5968;50.362;8.982;2022-07-19T02:25:25;18.10;98.40
11822;DHT22;5968;50.362;8.982;2022-07-19T02:27:54;18.10;99.90
11822;DHT22;5968;50.362;8.982;2022-07-19T02:30:22;18.10;99.50
11822;DHT22;5968;50.362;8.982;2022-07-19T02:35:24;18.00;99.90
11822;DHT22;5968;50.362;8.982;2022-07-19T02:37:52;17.90;99.90
11822;DHT22;5968;50.362;8.982;2022-07-19T02:40:27;17.90;99.90
11822;DHT22;5968;50.362;8.982;2022-07-19T02:42:56;17.90;99.90
11822;DHT22;5968;50.362;8.982;2022-07-19T02:45:24;17.80;99.90
11822;DHT22;5968;50.362;8.982;2022-07-19T02:47:52;17.80;99.90
11822;DHT22;5968;50.362;8.982;2022-07-19T02:50:20;17.70;99.90
11822;DHT22;5968;50.362;8.982;2022-07-19T02:52:55;17.50;99.90
11822;DHT22;5968;50.362;8.982;2022-07-19T02:55:23;18.10;99.90
11822;DHT22;5968;50.362;8.982;2022-07-19T02:57:50;17.70;99.90
11822;DHT22;5968;50.362;8.982;2022-07-19T03:00:20;17.60;99.90
11822;DHT22;5968;50.362;8.982;2022-07-19T03:02:52;17.60;99.90
11822;DHT22;5968;50.362;8.982;2022-07-19T03:05:20;17.50;99.90
11822;DHT22;5968;50.362;8.982;2022-07-19T03:07:48;17.50;99.90
11822;DHT22;5968;50.362;8.982;2022-07-19T03:10:21;17.40;99.90
11822;DHT22;5968;50.362;8.982;2022-07-19T03:12:48;17.30;99.90
11822;DHT22;5968;50.362;8.982;2022-07-19T03:15:16;17.40;99.90
11822;DHT22;5968;50.362;8.982;2022-07-19T03:17:45;17.40;99.90
11822;DHT22;5968;50.362;8.982;2022-07-19T03:20:15;17.30;99.90
11822;DHT22;5968;50.362;8.982;2022-07-19T03:22:43;17.30;99.90
11822;DHT22;5968;50.362;8.982;2022-07-19T03:25:11;17.20;99.90
11822;DHT22;5968;50.362;8.982;2022-07-19T03:27:38;17.20;99.90
11822;DHT22;5968;50.362;8.982;2022-07-19T03:30:07;17.20;99.90
11822;DHT22;5968;50.362;8.982;2022-07-19T03:32:35;17.20;99.90
11822;DHT22;5968;50.362;8.982;2022-07-19T03:35:05;17.10;99.90
11822;DHT22;5968;50.362;8.982;2022-07-19T03:37:34;17.10;99.90
11822;DHT22;5968;50.362;8.982;2022-07-19T03:40:02;17.10;99.90
11822;DHT22;5968;50.362;8.982;2022-07-19T03:42:30;17.10;99.90
11822;DHT22;5968;50.362;8.982;2022-07-19T03:44:58;17.10;99.90
11822;DHT22;5968;50.362;8.982;2022-07-19T03:47:25;17.10;99.90
11822;DHT22;5968;50.362;8.982;2022-07-19T03:49:53;17.10;99.90
11822;DHT22;5968;50.362;8.982;2022-07-19T03:52:22;17.20;99.90
11822;DHT22;5968;50.362;8.982;2022-07-19T03:57:51;17.00;99.90
11822;DHT22;5968;50.362;8.982;2022-07-19T04:00:18;17.00;99.90
11822;DHT22;5968;50.362;8.982;2022-07-19T04:02:46;17.00;99.90
11822;DHT22;5968;50.362;8.982;2022-07-19T04:05:22;17.00;99.90
11822;DHT22;5968;50.362;8.982;2022-07-19T04:07:51;17.00;99.90
11822;DHT22;5968;50.362;8.982;2022-07-19T04:10:19;17.00;99.90
11822;DHT22;5968;50.362;8.982;2022-07-19T04:12:47;17.00;99.90
11822;DHT22;5968;50.362;8.982;2022-07-19T04:17:43;16.90;99.90
11822;DHT22;5968;50.362;8.982;2022-07-19T04:20:11;16.90;99.90
11822;DHT22;5968;50.362;8.982;2022-07-19T04:22:39;16.80;99.90
11822;DHT22;5968;50.362;8.982;2022-07-19T04:25:09;16.90;99.90
11822;DHT22;5968;50.362;8.982;2022-07-19T04:27:37;16.90;99.90
11822;DHT22;5968;50.362;8.982;2022-07-19T04:30:06;16.90;99.90
11822;DHT22;5968;50.362;8.982;2022-07-19T04:32:34;17.00;99.90
11822;DHT22;5968;50.362;8.982;2022-07-19T04:35:16;17.00;99.90
11822;DHT22;5968;50.362;8.982;2022-07-19T04:37:44;17.00;99.90
11822;DHT22;5968;50.362;8.982;2022-07-19T04:40:13;17.00;99.90
11822;DHT22;5968;50.362;8.982;2022-07-19T04:42:41;17.00;99.90
11822;DHT22;5968;50.362;8.982;2022-07-19T04:45:10;17.00;99.90
11822;DHT22;5968;50.362;8.982;2022-07-19T04:47:37;17.10;99.90
11822;DHT22;5968;50.362;8.982;2022-07-19T04:50:06;17.10;99.90
11822;DHT22;5968;50.362;8.982;2022-07-19T04:52:41;17.10;99.90
11822;DHT22;5968;50.362;8.982;2022-07-19T04:55:09;17.10;99.90
11822;DHT22;5968;50.362;8.982;2022-07-19T04:57:38;17.10;99.90
11822;DHT22;5968;50.362;8.982;2022-07-19T05:00:20;17.20;99.90
11822;DHT22;5968;50.362;8.982;2022-07-19T05:02:48;17.20;99.90
11822;DHT22;5968;50.362;8.982;2022-07-19T05:05:16;17.20;99.90
11822;DHT22;5968;50.362;8.982;2022-07-19T05:07:44;17.20;99.90
11822;DHT22;5968;50.362;8.982;2022-07-19T05:10:12;17.20;99.90
11822;DHT22;5968;50.362;8.982;2022-07-19T05:12:41;17.30;99.90
11822;DHT22;5968;50.362;8.982;2022-07-19T05:15:18;17.30;99.90
11822;DHT22;5968;50.362;8.982;2022-07-19T05:17:46;17.40;99.90
11822;DHT22;5968;50.362;8.982;2022-07-19T05:20:14;17.40;99.90
11822;DHT22;5968;50.362;8.982;2022-07-19T05:22:43;17.50;99.90
11822;DHT22;5968;50.362;8.982;2022-07-19T05:25:24;17.50;99.90
11822;DHT22;5968;50.362;8.982;2022-07-19T05:27:54;17.50;99.90
11822;DHT22;5968;50.362;8.982;2022-07-19T05:30:23;17.50;99.90
11822;DHT22;5968;50.362;8.982;2022-07-19T05:32:51;17.60;99.90
11822;DHT22;5968;50.362;8.982;2022-07-19T05:35:19;17.60;99.90
11822;DHT22;5968;50.362;8.982;2022-07-19T05:37:46;17.70;99.90
11822;DHT22;5968;50.362;8.982;2022-07-19T05:40:14;17.70;99.90
11822;DHT22;5968;50.362;8.982;2022-07-19T05:42:42;17.70;99.90
11822;DHT22;5968;50.362;8.982;2022-07-19T05:45:11;17.80;99.90
11822;DHT22;5968;50.362;8.982;2022-07-19T05:47:39;17.80;99.90
11822;DHT22;5968;50.362;8.982;2022-07-19T05:50:07;17.90;99.90
11822;DHT22;5968;50.362;8.982;2022-07-19T05:52:35;18.00;99.90
11822;DHT22;5968;50.362;8.982;2022-07-19T05:55:05;18.00;99.90
11822;DHT22;5968;50.362;8.982;2022-07-19T05:57:33;18.00;99.90
11822;DHT22;5968;50.362;8.982;2022-07-19T06:00:01;18.00;99.90
11822;DHT22;5968;50.362;8.982;2022-07-19T06:02:30;18.10;99.90
11822;DHT22;5968;50.362;8.982;2022-07-19T06:04:58;18.10;99.90
11822;DHT22;5968;50.362;8.982;2022-07-19T06:07:26;18.20;99.90
11822;DHT22;5968;50.362;8.982;2022-07-19T06:10:05;18.40;99.90
11822;DHT22;5968;50.362;8.982;2022-07-19T06:12:43;18.40;99.90
11822;DHT22;5968;50.362;8.982;2022-07-19T06:15:11;18.40;99.90
11822;DHT22;5968;50.362;8.982;2022-07-19T06:17:40;18.40;99.90
11822;DHT22;5968;50.362;8.982;2022-07-19T06:20:09;18.50;99.90
11822;DHT22;5968;50.362;8.982;2022-07-19T06:22:37;18.60;99.90
11822;DHT22;5968;50.362;8.982;2022-07-19T06:25:20;18.70;99.90
11822;DHT22;5968;50.362;8.982;2022-07-19T06:27:55;18.80;99.90
11822;DHT22;5968;50.362;8.982;2022-07-19T06:30:23;18.90;99.90
11822;DHT22;5968;50.362;8.982;2022-07-19T06:32:52;19.00;99.90
11822;DHT22;5968;50.362;8.982;2022-07-19T06:35:20;19.10;99.90
11822;DHT22;5968;50.362;8.982;2022-07-19T06:38:04;19.20;99.90
11822;DHT22;5968;50.362;8.982;2022-07-19T06:40:32;19.30;99.90
11822;DHT22;5968;50.362;8.982;2022-07-19T06:42:59;19.40;99.90
11822;DHT22;5968;50.362;8.982;2022-07-19T06:45:27;19.60;99.90
11822;DHT22;5968;50.362;8.982;2022-07-19T06:47:56;19.70;99.90
11822;DHT22;5968;50.362;8.982;2022-07-19T06:50:24;19.80;99.90
11822;DHT22;5968;50.362;8.982;2022-07-19T06:53:08;20.00;99.90
11822;DHT22;5968;50.362;8.982;2022-07-19T06:55:36;20.10;99.90
11822;DHT22;5968;50.362;8.982;2022-07-19T06:58:04;20.30;99.90
11822;DHT22;5968;50.362;8.982;2022-07-19T07:00:32;20.40;99.90
11822;DHT22;5968;50.362;8.982;2022-07-19T07:03:01;20.60;99.90
11822;DHT22;5968;50.362;8.982;2022-07-19T07:05:30;20.80;99.90
11822;DHT22;5968;50.362;8.982;2022-07-19T07:07:58;20.90;99.90
11822;DHT22;5968;50.362;8.982;2022-07-19T07:10:26;21.10;99.90
11822;DHT22;5968;50.362;8.982;2022-07-19T07:12:54;21.20;99.90
11822;DHT22;5968;50.362;8.982;2022-07-19T07:15:22;21.30;99.90
11822;DHT22;5968;50.362;8.982;2022-07-19T07:18:01;21.50;99.90
11822;DHT22;5968;50.362;8.982;2022-07-19T07:20:29;21.60;99.90
11822;DHT22;5968;50.362;8.982;2022-07-19T07:22:56;21.70;99.90
11822;DHT22;5968;50.362;8.982;2022-07-19T07:25:24;21.80;99.90
11822;DHT22;5968;50.362;8.982;2022-07-19T07:27:52;21.90;99.90
11822;DHT22;5968;50.362;8.982;2022-07-19T07:30:36;22.00;99.90
11822;DHT22;5968;50.362;8.982;2022-07-19T07:33:05;22.10;99.90
11822;DHT22;5968;50.362;8.982;2022-07-19T07:35:45;22.20;99.90
11822;DHT22;5968;50.362;8.982;2022-07-19T07:38:13;22.40;99.90
11822;DHT22;5968;50.362;8.982;2022-07-19T07:40:42;22.50;99.90
11822;DHT22;5968;50.362;8.982;2022-07-19T07:43:15;22.70;99.90
11822;DHT22;5968;50.362;8.982;2022-07-19T07:45:43;22.80;99.90
11822;DHT22;5968;50.362;8.982;2022-07-19T07:48:13;22.90;99.90
11822;DHT22;5968;50.362;8.982;2022-07-19T07:50:41;23.00;99.90
11822;DHT22;5968;50.362;8.982;2022-07-19T07:53:09;23.20;99.90
11822;DHT22;5968;50.362;8.982;2022-07-19T07:55:45;23.30;99.90
11822;DHT22;5968;50.362;8.982;2022-07-19T07:58:13;23.50;99.90
11822;DHT22;5968;50.362;8.982;2022-07-19T08:00:44;23.70;99.90
11822;DHT22;5968;50.362;8.982;2022-07-19T08:03:23;23.90;99.90
11822;DHT22;5968;50.362;8.982;2022-07-19T08:05:53;24.10;99.90
11822;DHT22;5968;50.362;8.982;2022-07-19T08:08:31;24.30;99.40
11822;DHT22;5968;50.362;8.982;2022-07-19T08:11:05;24.40;99.70
11822;DHT22;5968;50.362;8.982;2022-07-19T08:13:33;24.60;98.00
11822;DHT22;5968;50.362;8.982;2022-07-19T08:16:01;24.80;97.60
11822;DHT22;5968;50.362;8.982;2022-07-19T08:18:30;24.90;92.40
11822;DHT22;5968;50.362;8.982;2022-07-19T08:21:05;24.90;88.70
11822;DHT22;5968;50.362;8.982;2022-07-19T08:23:42;24.80;90.90
11822;DHT22;5968;50.362;8.982;2022-07-19T08:26:10;24.80;88.90
11822;DHT22;5968;50.362;8.982;2022-07-19T08:28:45;25.00;81.40
11822;DHT22;5968;50.362;8.982;2022-07-19T08:31:13;25.20;83.90
11822;DHT22;5968;50.362;8.982;2022-07-19T08:33:43;25.30;82.60
11822;DHT22;5968;50.362;8.982;2022-07-19T08:36:11;25.40;76.40
11822;DHT22;5968;50.362;8.982;2022-07-19T08:38:39;25.40;78.90
11822;DHT22;5968;50.362;8.982;2022-07-19T08:41:08;25.50;72.00
11822;DHT22;5968;50.362;8.982;2022-07-19T08:43:36;25.70;69.90
11822;DHT22;5968;50.362;8.982;2022-07-19T08:46:20;25.90;61.50
11822;DHT22;5968;50.362;8.982;2022-07-19T08:48:56;26.00;63.10
11822;DHT22;5968;50.362;8.982;2022-07-19T08:51:26;26.20;54.90
11822;DHT22;5968;50.362;8.982;2022-07-19T08:53:54;26.60;55.00
11822;DHT22;5968;50.362;8.982;2022-07-19T08:56:30;26.40;54.50
11822;DHT22;5968;50.362;8.982;2022-07-19T08:59:15;26.50;52.40
11822;DHT22;5968;50.362;8.982;2022-07-19T09:01:43;26.50;50.90
11822;DHT22;5968;50.362;8.982;2022-07-19T09:04:16;26.70;49.10
11822;DHT22;5968;50.362;8.982;2022-07-19T09:06:46;26.70;47.50
11822;DHT22;5968;50.362;8.982;2022-07-19T09:09:18;26.80;46.50
11822;DHT22;5968;50.362;8.982;2022-07-19T09:11:49;26.80;45.00
11822;DHT22;5968;50.362;8.982;2022-07-19T09:14:23;27.00;44.90
11822;DHT22;5968;50.362;8.982;2022-07-19T09:16:57;27.20;41.00
11822;DHT22;5968;50.362;8.982;2022-07-19T09:19:35;27.20;41.70
11822;DHT22;5968;50.362;8.982;2022-07-19T09:22:04;27.50;41.20
11822;DHT22;5968;50.362;8.982;2022-07-19T09:24:34;27.50;39.50
11822;DHT22;5968;50.362;8.982;2022-07-19T09:27:05;27.70;41.00
11822;DHT22;5968;50.362;8.982;2022-07-19T09:29:35;27.80;40.20
11822;DHT22;5968;50.362;8.982;2022-07-19T09:32:09;27.90;39.40
11822;DHT22;5968;50.362;8.982;2022-07-19T09:34:40;27.90;32.20
11822;DHT22;5968;50.362;8.982;2022-07-19T09:37:15;28.10;33.00
11822;DHT22;5968;50.362;8.982;2022-07-19T09:39:51;28.10;32.50
11822;DHT22;5968;50.362;8.982;2022-07-19T09:42:23;28.10;31.50
11822;DHT22;5968;50.362;8.982;2022-07-19T09:44:58;28.20;30.90
11822;DHT22;5968;50.362;8.982;2022-07-19T09:47:42;28.30;28.00
11822;DHT22;5968;50.362;8.982;2022-07-19T09:50:13;28.40;30.70
11822;DHT22;5968;50.362;8.982;2022-07-19T09:52:45;28.50;28.90
11822;DHT22;5968;50.362;8.982;2022-07-19T09:55:19;28.60;27.70
11822;DHT22;5968;50.362;8.982;2022-07-19T09:57:49;28.70;26.00
11822;DHT22;5968;50.362;8.982;2022-07-19T10:00:20;28.90;26.00
11822;DHT22;5968;50.362;8.982;2022-07-19T10:02:50;29.10;25.80
11822;DHT22;5968;50.362;8.982;2022-07-19T10:05:21;29.20;25.30
11822;DHT22;5968;50.362;8.982;2022-07-19T10:07:59;29.20;23.50
11822;DHT22;5968;50.362;8.982;2022-07-19T10:10:27;29.30;23.10
11822;DHT22;5968;50.362;8.982;2022-07-19T10:13:00;29.40;22.20
11822;DHT22;5968;50.362;8.982;2022-07-19T10:15:31;29.80;21.60
11822;DHT22;5968;50.362;8.982;2022-07-19T10:18:09;29.70;20.70
11822;DHT22;5968;50.362;8.982;2022-07-19T10:20:46;29.70;18.90
11822;DHT22;5968;50.362;8.982;2022-07-19T10:23:15;29.80;19.20
11822;DHT22;5968;50.362;8.982;2022-07-19T10:25:45;29.90;18.50
11822;DHT22;5968;50.362;8.982;2022-07-19T10:28:31;29.80;19.40
11822;DHT22;5968;50.362;8.982;2022-07-19T10:31:27;30.00;18.00
11822;DHT22;5968;50.362;8.982;2022-07-19T10:34:06;30.00;15.40
11822;DHT22;5968;50.362;8.982;2022-07-19T10:36:37;30.20;15.10
11822;DHT22;5968;50.362;8.982;2022-07-19T10:39:26;30.30;16.40
11822;DHT22;5968;50.362;8.982;2022-07-19T10:42:16;30.50;13.90
11822;DHT22;5968;50.362;8.982;2022-07-19T10:48:02;30.60;13.60
11822;DHT22;5968;50.362;8.982;2022-07-19T10:50:56;30.60;13.90
11822;DHT22;5968;50.362;8.982;2022-07-19T10:53:59;30.70;14.20
11822;DHT22;5968;50.362;8.982;2022-07-19T10:56:37;30.70;14.50
11822;DHT22;5968;50.362;8.982;2022-07-19T10:59:30;30.80;13.00
11822;DHT22;5968;50.362;8.982;2022-07-19T11:02:03;30.90;13.60
11822;DHT22;5968;50.362;8.982;2022-07-19T11:04:53;31.10;13.10
11822;DHT22;5968;50.362;8.982;2022-07-19T11:07:23;31.20;11.80
11822;DHT22;5968;50.362;8.982;2022-07-19T11:09:55;31.30;12.30
11822;DHT22;5968;50.362;8.982;2022-07-19T11:12:34;31.30;10.80
11822;DHT22;5968;50.362;8.982;2022-07-19T11:15:06;31.30;9.70
11822;DHT22;5968;50.362;8.982;2022-07-19T11:17:54;31.40;8.30
11822;DHT22;5968;50.362;8.982;2022-07-19T11:20:29;31.50;7.40
11822;DHT22;5968;50.362;8.982;2022-07-19T11:22:58;31.50;7.80
11822;DHT22;5968;50.362;8.982;2022-07-19T11:25:29;31.70;7.90
11822;DHT22;5968;50.362;8.982;2022-07-19T11:27:58;31.80;6.40
11822;DHT22;5968;50.362;8.982;2022-07-19T11:30:34;31.80;7.10
11822;DHT22;5968;50.362;8.982;2022-07-19T11:33:05;31.90;6.20
11822;DHT22;5968;50.362;8.982;2022-07-19T11:35:54;32.00;6.60
11822;DHT22;5968;50.362;8.982;2022-07-19T11:38:44;32.10;5.40
11822;DHT22;5968;50.362;8.982;2022-07-19T11:41:17;32.20;4.50
11822;DHT22;5968;50.362;8.982;2022-07-19T11:43:57;32.30;4.70
11822;DHT22;5968;50.362;8.982;2022-07-19T11:46:27;32.30;4.50
11822;DHT22;5968;50.362;8.982;2022-07-19T11:49:02;32.30;5.60
11822;DHT22;5968;50.362;8.982;2022-07-19T11:51:30;32.30;1.90
11822;DHT22;5968;50.362;8.982;2022-07-19T11:54:03;32.40;2.60
11822;DHT22;5968;50.362;8.982;2022-07-19T11:56:35;32.40;2.60
11822;DHT22;5968;50.362;8.982;2022-07-19T11:59:05;32.40;1.40
11822;DHT22;5968;50.362;8.982;2022-07-19T12:01:45;32.60;1.70
11822;DHT22;5968;50.362;8.982;2022-07-19T12:04:19;32.60;2.90
11822;DHT22;5968;50.362;8.982;2022-07-19T12:06:50;32.60;1.00
11822;DHT22;5968;50.362;8.982;2022-07-19T12:09:20;32.60;1.70
11822;DHT22;5968;50.362;8.982;2022-07-19T12:11:55;32.80;1.00
11822;DHT22;5968;50.362;8.982;2022-07-19T12:14:25;32.90;1.40
11822;DHT22;5968;50.362;8.982;2022-07-19T12:17:10;33.00;1.00
11822;DHT22;5968;50.362;8.982;2022-07-19T12:19:46;33.00;1.00
11822;DHT22;5968;50.362;8.982;2022-07-19T12:22:34;33.10;1.00
11822;DHT22;5968;50.362;8.982;2022-07-19T12:25:03;33.50;1.00
11822;DHT22;5968;50.362;8.982;2022-07-19T12:27:32;33.20;1.00
11822;DHT22;5968;50.362;8.982;2022-07-19T12:30:00;33.50;1.00
11822;DHT22;5968;50.362;8.982;2022-07-19T12:32:34;33.50;1.00
11822;DHT22;5968;50.362;8.982;2022-07-19T12:35:04;33.60;1.00
11822;DHT22;5968;50.362;8.982;2022-07-19T12:37:36;33.50;1.00
11822;DHT22;5968;50.362;8.982;2022-07-19T12:40:09;33.60;1.00
11822;DHT22;5968;50.362;8.982;2022-07-19T12:42:41;33.60;1.00
11822;DHT22;5968;50.362;8.982;2022-07-19T12:45:12;33.70;1.00
11822;DHT22;5968;50.362;8.982;2022-07-19T12:47:45;33.70;1.00
11822;DHT22;5968;50.362;8.982;2022-07-19T12:50:20;33.70;1.00
11822;DHT22;5968;50.362;8.982;2022-07-19T12:52:48;34.00;1.00
11822;DHT22;5968;50.362;8.982;2022-07-19T12:55:16;33.90;1.00
11822;DHT22;5968;50.362;8.982;2022-07-19T12:57:47;33.90;1.00
11822;DHT22;5968;50.362;8.982;2022-07-19T13:00:16;34.00;1.00
11822;DHT22;5968;50.362;8.982;2022-07-19T13:02:46;34.10;1.00
11822;DHT22;5968;50.362;8.982;2022-07-19T13:05:41;34.10;1.00
11822;DHT22;5968;50.362;8.982;2022-07-19T13:08:22;34.30;1.00
11822;DHT22;5968;50.362;8.982;2022-07-19T13:10:51;34.30;1.00
11822;DHT22;5968;50.362;8.982;2022-07-19T13:13:21;34.40;1.00
11822;DHT22;5968;50.362;8.982;2022-07-19T13:15:55;34.50;1.00
11822;DHT22;5968;50.362;8.982;2022-07-19T13:18:24;34.50;1.00
11822;DHT22;5968;50.362;8.982;2022-07-19T13:20:53;34.60;1.00
11822;DHT22;5968;50.362;8.982;2022-07-19T13:23:23;34.60;1.00
11822;DHT22;5968;50.362;8.982;2022-07-19T13:25:50;34.60;1.00
11822;DHT22;5968;50.362;8.982;2022-07-19T13:28:18;34.50;1.00
11822;DHT22;5968;50.362;8.982;2022-07-19T13:30:46;34.60;1.00
11822;DHT22;5968;50.362;8.982;2022-07-19T13:33:14;34.70;1.00
11822;DHT22;5968;50.362;8.982;2022-07-19T13:35:42;34.80;1.00
11822;DHT22;5968;50.362;8.982;2022-07-19T13:38:11;34.90;1.00
11822;DHT22;5968;50.362;8.982;2022-07-19T13:40:39;35.10;1.00
11822;DHT22;5968;50.362;8.982;2022-07-19T13:43:07;35.10;1.00
11822;DHT22;5968;50.362;8.982;2022-07-19T13:45:35;35.20;1.00
11822;DHT22;5968;50.362;8.982;2022-07-19T13:48:03;35.40;1.00
11822;DHT22;5968;50.362;8.982;2022-07-19T13:50:31;35.40;1.00
11822;DHT22;5968;50.362;8.982;2022-07-19T13:53:00;35.40;1.00
11822;DHT22;5968;50.362;8.982;2022-07-19T13:55:29;35.50;1.00
11822;DHT22;5968;50.362;8.982;2022-07-19T13:57:58;35.50;1.00
11822;DHT22;5968;50.362;8.982;2022-07-19T14:00:26;35.60;1.00
11822;DHT22;5968;50.362;8.982;2022-07-19T14:02:54;35.60;1.00
11822;DHT22;5968;50.362;8.982;2022-07-19T14:05:22;35.60;1.00
11822;DHT22;5968;50.362;8.982;2022-07-19T14:07:50;35.60;1.00
11822;DHT22;5968;50.362;8.982;2022-07-19T14:10:18;35.60;1.00
11822;DHT22;5968;50.362;8.982;2022-07-19T14:12:47;35.70;1.00
11822;DHT22;5968;50.362;8.982;2022-07-19T14:15:35;35.80;1.00
11822;DHT22;5968;50.362;8.982;2022-07-19T14:18:03;35.80;1.00
11822;DHT22;5968;50.362;8.982;2022-07-19T14:20:31;36.00;1.00
11822;DHT22;5968;50.362;8.982;2022-07-19T14:22:59;36.00;1.00
11822;DHT22;5968;50.362;8.982;2022-07-19T14:25:27;36.10;1.00
11822;DHT22;5968;50.362;8.982;2022-07-19T14:27:57;36.10;1.00
11822;DHT22;5968;50.362;8.982;2022-07-19T14:30:24;36.10;1.00
11822;DHT22;5968;50.362;8.982;2022-07-19T14:32:52;36.10;1.00
11822;DHT22;5968;50.362;8.982;2022-07-19T14:35:21;36.20;1.00
11822;DHT22;5968;50.362;8.982;2022-07-19T14:37:49;36.30;1.00
11822;DHT22;5968;50.362;8.982;2022-07-19T14:40:18;36.30;1.00
11822;DHT22;5968;50.362;8.982;2022-07-19T14:42:46;36.30;1.00
11822;DHT22;5968;50.362;8.982;2022-07-19T14:45:15;36.30;1.00
11822;DHT22;5968;50.362;8.982;2022-07-19T14:47:43;36.30;1.00
11822;DHT22;5968;50.362;8.982;2022-07-19T14:50:16;36.40;1.00
11822;DHT22;5968;50.362;8.982;2022-07-19T14:52:44;36.30;1.00
11822;DHT22;5968;50.362;8.982;2022-07-19T14:55:12;36.40;1.00
11822;DHT22;5968;50.362;8.982;2022-07-19T14:57:40;36.40;1.00
11822;DHT22;5968;50.362;8.982;2022-07-19T15:00:09;36.50;1.00
11822;DHT22;5968;50.362;8.982;2022-07-19T15:02:40;36.50;1.00
11822;DHT22;5968;50.362;8.982;2022-07-19T15:05:08;36.50;1.00
11822;DHT22;5968;50.362;8.982;2022-07-19T15:07:36;36.60;1.00
11822;DHT22;5968;50.362;8.982;2022-07-19T15:10:06;36.60;1.00
11822;DHT22;5968;50.362;8.982;2022-07-19T15:12:34;36.60;1.00
11822;DHT22;5968;50.362;8.982;2022-07-19T15:15:03;36.60;1.00
11822;DHT22;5968;50.362;8.982;2022-07-19T15:17:31;36.60;1.00
11822;DHT22;5968;50.362;8.982;2022-07-19T15:20:00;36.60;1.00
11822;DHT22;5968;50.362;8.982;2022-07-19T15:22:28;36.70;1.00
11822;DHT22;5968;50.362;8.982;2022-07-19T15:24:56;36.70;1.00
11822;DHT22;5968;50.362;8.982;2022-07-19T15:27:24;36.80;1.00
11822;DHT22;5968;50.362;8.982;2022-07-19T15:29:53;36.80;1.00
11822;DHT22;5968;50.362;8.982;2022-07-19T15:32:46;36.90;1.00
11822;DHT22;5968;50.362;8.982;2022-07-19T15:35:15;37.00;1.00
11822;DHT22;5968;50.362;8.982;2022-07-19T15:37:46;37.10;1.00
11822;DHT22;5968;50.362;8.982;2022-07-19T15:40:14;37.10;1.00
11822;DHT22;5968;50.362;8.982;2022-07-19T15:42:44;37.20;1.00
11822;DHT22;5968;50.362;8.982;2022-07-19T15:45:12;37.20;1.00
11822;DHT22;5968;50.362;8.982;2022-07-19T15:47:41;37.20;1.00
11822;DHT22;5968;50.362;8.982;2022-07-19T15:50:12;37.20;1.00
11822;DHT22;5968;50.362;8.982;2022-07-19T15:52:42;37.30;1.00
11822;DHT22;5968;50.362;8.982;2022-07-19T15:55:10;37.40;1.00
11822;DHT22;5968;50.362;8.982;2022-07-19T15:57:38;37.50;1.00
11822;DHT22;5968;50.362;8.982;2022-07-19T16:00:16;37.60;1.00
11822;DHT22;5968;50.362;8.982;2022-07-19T16:02:45;37.70;1.00
11822;DHT22;5968;50.362;8.982;2022-07-19T16:05:13;38.00;1.00
11822;DHT22;5968;50.362;8.982;2022-07-19T16:07:42;38.50;1.00
11822;DHT22;5968;50.362;8.982;2022-07-19T16:10:10;39.80;1.00
11822;DHT22;5968;50.362;8.982;2022-07-19T16:12:56;41.30;1.00
11822;DHT22;5968;50.362;8.982;2022-07-19T16:15:24;42.70;1.00
11822;DHT22;5968;50.362;8.982;2022-07-19T16:17:52;43.50;1.00
11822;DHT22;5968;50.362;8.982;2022-07-19T16:20:20;44.10;1.00
11822;DHT22;5968;50.362;8.982;2022-07-19T16:22:50;44.30;1.00
11822;DHT22;5968;50.362;8.982;2022-07-19T16:25:18;45.10;1.00
11822;DHT22;5968;50.362;8.982;2022-07-19T16:27:51;46.10;1.00
11822;DHT22;5968;50.362;8.982;2022-07-19T16:30:37;47.10;1.00